Time;durP1;ratioP1;P1;durP2;ratioP2;P2;SDS_P1;SDS_P2;PMS_P1;PMS_P2;Temp;Humidity;BMP_temperature;BMP_pressure;BME280_temperature;BME280_humidity;BME280_pressure;Samples;Min_cycle;Max_cycle;Signal;HPM_P1;HPM_P2
2021/07/02 00:00:25;;;;;;;26.90;15.87;;;16.20;99.90;;;;;;5032966;28;20232;-62
2021/07/02 00:02:54;;;;;;;25.00;16.20;;;16.20;99.90;;;;;;5027883;28;20240;-63
2021/07/02 00:05:23;;;;;;;24.63;16.80;;;16.20;99.90;;;;;;5027855;28;20597;-63
2021/07/02 00:07:52;;;;;;;21.50;16.20;;;16.20;99.90;;;;;;5028540;28;20600;-62
2021/07/02 00:10:24;;;;;;;21.57;16.93;;;16.10;99.90;;;;;;5027856;28;20228;-62
2021/07/02 00:12:54;;;;;;;21.13;16.17;;;16.10;99.90;;;;;;5028208;28;20261;-62
2021/07/02 00:15:23;;;;;;;24.97;15.07;;;16.10;99.90;;;;;;5027545;28;20235;-61
2021/07/02 00:17:54;;;;;;;21.40;15.40;;;16.10;99.90;;;;;;5028230;28;20240;-62
2021/07/02 00:20:24;;;;;;;25.30;17.10;;;16.00;99.90;;;;;;5027388;28;20228;-62
2021/07/02 00:22:53;;;;;;;24.17;15.23;;;16.00;99.90;;;;;;5028011;28;20692;-61
2021/07/02 00:25:23;;;;;;;20.63;14.73;;;16.00;99.90;;;;;;5027590;28;20236;-62
2021/07/02 00:27:52;;;;;;;22.47;15.50;;;16.00;99.90;;;;;;5027908;28;20735;-61
2021/07/02 00:30:22;;;;;;;23.33;15.63;;;16.00;99.90;;;;;;5027435;28;20315;-62
2021/07/02 00:32:55;;;;;;;22.77;14.87;;;15.90;99.90;;;;;;5028059;28;20743;-62
2021/07/02 00:35:24;;;;;;;25.73;15.40;;;15.90;99.90;;;;;;5027595;28;20286;-62
2021/07/02 00:37:54;;;;;;;22.87;14.87;;;15.80;99.90;;;;;;5027402;28;20279;-62
2021/07/02 00:40:23;;;;;;;21.87;15.63;;;15.80;99.90;;;;;;5026970;28;20536;-62
2021/07/02 00:42:53;;;;;;;21.53;14.60;;;15.90;99.90;;;;;;5027857;28;20723;-62
2021/07/02 00:45:22;;;;;;;23.23;15.70;;;15.90;99.90;;;;;;5026103;28;20301;-62
2021/07/02 00:47:52;;;;;;;23.67;15.90;;;15.80;99.90;;;;;;5042418;28;20631;-62
2021/07/02 00:50:23;;;;;;;22.83;15.80;;;15.80;99.90;;;;;;5027118;28;20224;-62
2021/07/02 00:52:53;;;;;;;25.70;16.83;;;15.80;99.90;;;;;;5027332;28;20275;-61
2021/07/02 00:55:23;;;;;;;21.50;15.40;;;15.80;99.90;;;;;;5042567;28;20235;-61
2021/07/02 00:57:54;;;;;;;23.47;15.93;;;15.80;99.90;;;;;;5042366;28;20286;-63
2021/07/02 01:00:24;;;;;;;22.53;16.67;;;15.80;99.90;;;;;;5041746;28;20224;-62
2021/07/02 01:02:54;;;;;;;22.77;15.70;;;15.80;99.90;;;;;;5042500;28;20248;-62
2021/07/02 01:05:26;;;;;;;24.10;15.90;;;15.80;99.90;;;;;;5042200;28;20673;-62
2021/07/02 01:07:56;;;;;;;26.43;16.77;;;15.90;99.90;;;;;;5042747;28;20271;-61
2021/07/02 01:10:25;;;;;;;24.33;16.57;;;15.90;99.90;;;;;;5041944;28;20739;-62
2021/07/02 01:12:55;;;;;;;26.43;17.30;;;16.00;99.90;;;;;;5042516;28;20340;-61
2021/07/02 01:15:28;;;;;;;22.73;16.57;;;16.00;99.90;;;;;;5042301;28;20232;-61
2021/07/02 01:18:07;;;;;;;24.67;18.60;;;16.00;99.90;;;;;;5018001;28;20257;-62
2021/07/02 01:20:38;;;;;;;27.17;19.53;;;16.00;99.90;;;;;;5041652;28;20310;-62
2021/07/02 01:23:10;;;;;;;26.93;18.30;;;16.00;99.90;;;;;;5042400;28;20295;-62
2021/07/02 01:25:40;;;;;;;25.90;19.37;;;16.00;99.90;;;;;;5027265;28;20286;-62
2021/07/02 01:28:12;;;;;;;25.23;19.07;;;16.00;99.90;;;;;;5025702;28;20310;-61
2021/07/02 01:30:44;;;;;;;26.63;19.23;;;16.00;99.90;;;;;;5041587;28;20220;-62
2021/07/02 01:33:16;;;;;;;26.53;20.47;;;16.00;99.90;;;;;;5027000;28;20247;-63
2021/07/02 01:35:48;;;;;;;27.07;20.73;;;16.00;99.90;;;;;;5041914;28;20236;-62
2021/07/02 01:38:21;;;;;;;31.43;20.43;;;15.90;99.90;;;;;;5041814;28;20243;-62
2021/07/02 01:40:54;;;;;;;26.87;20.07;;;15.90;99.90;;;;;;5026778;28;20799;-63
2021/07/02 01:43:26;;;;;;;25.80;18.87;;;15.80;99.90;;;;;;5042636;28;20239;-62
2021/07/02 01:45:57;;;;;;;28.17;20.13;;;15.70;99.90;;;;;;5042307;28;20240;-61
2021/07/02 01:48:27;;;;;;;24.50;17.83;;;15.70;99.90;;;;;;5022658;28;20793;-61
2021/07/02 01:50:57;;;;;;;27.87;20.20;;;15.60;99.90;;;;;;5041167;28;20240;-62
2021/07/02 01:53:29;;;;;;;29.13;19.80;;;15.70;99.90;;;;;;5042083;28;20287;-62
2021/07/02 01:56:00;;;;;;;25.33;20.10;;;15.70;99.90;;;;;;5042060;28;20290;-62
2021/07/02 01:58:33;;;;;;;27.20;20.07;;;15.70;99.90;;;;;;5039482;28;20589;-61
2021/07/02 02:01:31;;;;;;;26.53;19.27;;;15.70;99.90;;;;;;5025132;28;20229;-62
2021/07/02 02:04:05;;;;;;;25.27;19.00;;;15.60;99.90;;;;;;5043205;28;20316;-61
2021/07/02 02:06:33;;;;;;;27.93;18.57;;;15.60;99.90;;;;;;5026962;28;20224;-61
2021/07/02 02:09:03;;;;;;;28.20;19.97;;;15.60;99.90;;;;;;5042230;28;20847;-61
2021/07/02 02:11:33;;;;;;;28.57;19.57;;;15.60;99.90;;;;;;5041301;28;20647;-62
2021/07/02 02:14:02;;;;;;;27.53;19.33;;;15.50;99.90;;;;;;5028615;28;20234;-61
2021/07/02 02:16:31;;;;;;;22.33;17.87;;;15.50;99.90;;;;;;5030223;28;20783;-61
2021/07/02 02:19:05;;;;;;;22.30;17.63;;;15.40;99.90;;;;;;5044864;28;20282;-62
2021/07/02 02:21:35;;;;;;;22.57;17.80;;;15.40;99.90;;;;;;5044449;28;20240;-62
2021/07/02 02:24:05;;;;;;;21.10;16.80;;;15.30;99.90;;;;;;5045605;28;20245;-61
2021/07/02 02:26:34;;;;;;;18.47;16.33;;;15.20;99.90;;;;;;5044933;28;20700;-61
2021/07/02 02:29:04;;;;;;;20.23;16.93;;;15.10;99.90;;;;;;5045536;28;20323;-61
2021/07/02 02:31:32;;;;;;;25.87;18.17;;;15.20;99.90;;;;;;5044653;28;20229;-62
2021/07/02 02:34:07;;;;;;;25.83;18.63;;;15.20;99.90;;;;;;5045580;28;20239;-61
2021/07/02 02:36:37;;;;;;;25.90;19.30;;;15.30;99.90;;;;;;5045061;28;20240;-61
2021/07/02 02:39:07;;;;;;;26.93;19.60;;;15.30;99.90;;;;;;5029634;28;20248;-61
2021/07/02 02:41:37;;;;;;;23.70;18.13;;;15.50;99.90;;;;;;5029240;28;20263;-63
2021/07/02 02:44:07;;;;;;;24.73;18.13;;;15.40;99.90;;;;;;5029927;28;20240;-63
2021/07/02 02:46:36;;;;;;;29.23;18.80;;;15.30;99.90;;;;;;5044055;28;20236;-62
2021/07/02 02:49:05;;;;;;;24.13;18.43;;;15.30;99.90;;;;;;5029708;28;20811;-61
2021/07/02 02:51:33;;;;;;;26.07;19.40;;;15.30;99.90;;;;;;5042977;28;20221;-62
2021/07/02 02:54:03;;;;;;;21.23;18.03;;;15.30;99.90;;;;;;5029531;28;20290;-61
2021/07/02 02:56:32;;;;;;;22.73;17.87;;;15.10;99.90;;;;;;5029542;28;20440;-60
2021/07/02 02:59:04;;;;;;;21.97;18.13;;;15.00;99.90;;;;;;5028594;28;20318;-60
2021/07/02 03:01:33;;;;;;;25.73;18.97;;;15.10;99.90;;;;;;5043866;28;20281;-61
2021/07/02 03:04:03;;;;;;;20.27;18.07;;;15.10;99.90;;;;;;5044715;28;20244;-61
2021/07/02 03:06:31;;;;;;;22.30;19.23;;;15.10;99.90;;;;;;5028749;28;20587;-62
2021/07/02 03:08:59;;;;;;;27.37;19.20;;;15.20;99.90;;;;;;5028269;28;20237;-61
2021/07/02 03:11:27;;;;;;;25.57;17.77;;;15.10;99.90;;;;;;5042964;28;20232;-60
2021/07/02 03:13:57;;;;;;;20.87;17.23;;;15.00;99.90;;;;;;5044469;28;20654;-62
2021/07/02 03:16:25;;;;;;;20.70;17.10;;;15.00;99.90;;;;;;5043440;28;20243;-61
2021/07/02 03:18:53;;;;;;;22.17;17.70;;;15.00;99.90;;;;;;5028850;28;20268;-61
2021/07/02 03:21:22;;;;;;;24.93;18.40;;;15.00;99.90;;;;;;5043228;28;20287;-62
2021/07/02 03:23:51;;;;;;;24.40;19.30;;;15.10;99.90;;;;;;5043511;28;20600;-61
2021/07/02 03:26:19;;;;;;;25.23;19.63;;;15.30;99.90;;;;;;5043815;28;20322;-60
2021/07/02 03:28:50;;;;;;;22.23;19.53;;;15.20;99.90;;;;;;5027559;28;20649;-62
2021/07/02 03:31:20;;;;;;;24.30;20.27;;;15.30;99.90;;;;;;5043292;28;20713;-60
2021/07/02 03:33:50;;;;;;;27.07;18.70;;;15.20;99.90;;;;;;5043436;28;20233;-62
2021/07/02 03:36:18;;;;;;;24.60;19.50;;;15.30;99.90;;;;;;5027002;28;20651;-62
2021/07/02 03:38:48;;;;;;;24.33;19.87;;;15.30;99.90;;;;;;5043486;28;20255;-62
2021/07/02 03:41:17;;;;;;;25.67;19.70;;;15.30;99.90;;;;;;5042466;28;20244;-62
2021/07/02 03:43:46;;;;;;;25.37;19.70;;;15.20;99.90;;;;;;5042711;28;20240;-61
2021/07/02 03:46:17;;;;;;;22.40;19.00;;;15.20;99.90;;;;;;5042399;28;20256;-63
2021/07/02 03:48:47;;;;;;;25.77;21.33;;;15.20;99.90;;;;;;5041866;28;20310;-61
2021/07/02 03:51:16;;;;;;;26.23;19.90;;;15.20;99.90;;;;;;5026700;28;20802;-62
2021/07/02 03:53:44;;;;;;;27.23;20.37;;;15.20;99.90;;;;;;5027659;28;20236;-62
2021/07/02 03:56:13;;;;;;;25.90;20.37;;;15.30;99.90;;;;;;5026521;28;20237;-61
2021/07/02 03:58:41;;;;;;;25.00;20.20;;;15.30;99.90;;;;;;5027188;28;20708;-62
2021/07/02 04:01:09;;;;;;;27.17;19.67;;;15.30;99.90;;;;;;5026477;28;20228;-61
2021/07/02 04:03:37;;;;;;;27.37;20.57;;;15.30;99.90;;;;;;5026903;28;20322;-62
2021/07/02 04:06:07;;;;;;;25.67;20.60;;;15.30;99.90;;;;;;5026433;28;20237;-61
2021/07/02 04:08:36;;;;;;;29.30;21.07;;;15.40;99.90;;;;;;5026091;28;20314;-62
2021/07/02 04:11:06;;;;;;;27.47;21.90;;;15.50;99.90;;;;;;5026562;28;20306;-63
2021/07/02 04:13:34;;;;;;;28.63;22.30;;;15.50;99.90;;;;;;5026812;28;20246;-62
2021/07/02 04:16:05;;;;;;;30.30;22.37;;;15.50;99.90;;;;;;5026280;28;20230;-62
2021/07/02 04:18:33;;;;;;;29.80;22.30;;;15.50;99.90;;;;;;5025947;28;20248;-62
2021/07/02 04:21:02;;;;;;;33.27;23.50;;;15.50;99.90;;;;;;5025252;28;20275;-61
2021/07/02 04:23:31;;;;;;;29.90;22.00;;;15.50;99.90;;;;;;5026728;28;20576;-61
2021/07/02 04:25:59;;;;;;;30.77;23.23;;;15.50;99.90;;;;;;5026562;28;20290;-62
2021/07/02 04:28:27;;;;;;;31.40;23.50;;;15.40;99.90;;;;;;5026734;28;20240;-62
2021/07/02 04:30:55;;;;;;;31.27;22.90;;;15.40;99.90;;;;;;5026889;28;20278;-62
2021/07/02 04:33:24;;;;;;;30.47;23.53;;;15.40;99.90;;;;;;5027203;28;20251;-62
2021/07/02 04:35:52;;;;;;;33.17;22.90;;;15.50;99.90;;;;;;5026450;28;20248;-63
2021/07/02 04:38:20;;;;;;;31.97;23.27;;;15.60;99.90;;;;;;5027120;28;20255;-62
2021/07/02 04:40:49;;;;;;;34.67;24.57;;;15.70;99.90;;;;;;5026751;28;20244;-62
2021/07/02 04:43:17;;;;;;;28.40;23.00;;;15.70;99.90;;;;;;5027610;28;20243;-61
2021/07/02 04:45:46;;;;;;;30.67;23.13;;;15.80;99.90;;;;;;5032051;28;20244;-61
2021/07/02 04:48:14;;;;;;;29.50;23.07;;;15.80;99.90;;;;;;5042768;28;20236;-62
2021/07/02 04:50:42;;;;;;;29.83;23.07;;;15.80;99.90;;;;;;5026764;28;20244;-62
2021/07/02 04:53:10;;;;;;;28.70;22.30;;;15.90;99.90;;;;;;5027464;28;20236;-61
2021/07/02 04:55:38;;;;;;;34.80;25.23;;;16.00;99.90;;;;;;5027149;28;20243;-62
2021/07/02 04:58:07;;;;;;;32.27;24.50;;;16.00;99.90;;;;;;5027170;28;20247;-62
2021/07/02 05:00:35;;;;;;;35.10;25.67;;;16.00;99.90;;;;;;5026112;28;20236;-62
2021/07/02 05:03:04;;;;;;;33.57;24.07;;;16.00;99.90;;;;;;5027252;28;20232;-62
2021/07/02 05:05:33;;;;;;;31.20;23.87;;;16.10;99.90;;;;;;5026394;28;20887;-61
2021/07/02 05:08:01;;;;;;;34.10;23.03;;;16.10;99.90;;;;;;5027000;28;20240;-61
2021/07/02 05:10:29;;;;;;;32.30;23.47;;;16.10;99.90;;;;;;5032856;28;20590;-61
2021/07/02 05:12:57;;;;;;;29.23;24.00;;;16.20;99.90;;;;;;5047163;28;20695;-62
2021/07/02 05:15:27;;;;;;;32.33;23.73;;;16.20;99.90;;;;;;5040950;28;20607;-62
2021/07/02 05:17:55;;;;;;;34.47;24.57;;;16.20;99.90;;;;;;5027021;28;20245;-61
2021/07/02 05:20:23;;;;;;;32.13;24.00;;;16.20;99.90;;;;;;5041297;28;20287;-62
2021/07/02 05:22:51;;;;;;;30.23;23.80;;;16.30;99.90;;;;;;5027108;28;20707;-62
2021/07/02 05:25:20;;;;;;;28.90;23.57;;;16.40;99.90;;;;;;5026979;28;20278;-62
2021/07/02 05:27:48;;;;;;;27.80;22.87;;;16.50;99.90;;;;;;5026308;28;20723;-61
2021/07/02 05:30:17;;;;;;;29.03;23.40;;;16.50;99.90;;;;;;5041472;28;20311;-62
2021/07/02 05:32:46;;;;;;;29.00;22.53;;;16.50;99.90;;;;;;5026089;28;20327;-63
2021/07/02 05:35:14;;;;;;;28.87;22.73;;;16.50;99.90;;;;;;5025232;28;20766;-62
2021/07/02 05:37:44;;;;;;;31.70;22.97;;;16.70;99.90;;;;;;5025972;28;20239;-62
2021/07/02 05:40:14;;;;;;;28.80;22.47;;;16.80;99.90;;;;;;5026589;28;20263;-61
2021/07/02 05:42:43;;;;;;;29.57;22.10;;;16.80;99.90;;;;;;5025916;28;20240;-61
2021/07/02 05:45:12;;;;;;;26.13;21.07;;;16.90;99.90;;;;;;5026595;28;20232;-62
2021/07/02 05:47:46;;;;;;;31.50;22.33;;;17.10;99.90;;;;;;5028296;28;20251;-62
2021/07/02 05:50:16;;;;;;;31.33;23.50;;;17.30;99.90;;;;;;5029795;28;20231;-61
2021/07/02 05:52:45;;;;;;;29.93;22.80;;;17.50;99.90;;;;;;5029788;28;20245;-62
2021/07/02 05:55:14;;;;;;;26.37;21.97;;;17.70;99.90;;;;;;5030952;28;20240;-63
2021/07/02 05:57:42;;;;;;;27.40;22.47;;;17.90;99.90;;;;;;5030274;28;20241;-62
2021/07/02 06:00:12;;;;;;;27.57;21.90;;;18.10;99.90;;;;;;5029272;28;20272;-62
2021/07/02 06:02:40;;;;;;;25.23;20.80;;;18.30;99.90;;;;;;5029365;28;20755;-62
2021/07/02 06:05:08;;;;;;;25.83;21.53;;;18.50;99.90;;;;;;5028838;28;20697;-62
2021/07/02 06:07:46;;;;;;;24.80;20.20;;;18.60;99.90;;;;;;5029078;28;20295;-63
2021/07/02 06:10:15;;;;;;;26.10;20.27;;;18.70;99.90;;;;;;5029583;28;20558;-62
2021/07/02 06:12:43;;;;;;;23.93;20.03;;;19.00;99.90;;;;;;5029676;28;20249;-62
2021/07/02 06:15:15;;;;;;;22.70;20.20;;;19.20;99.90;;;;;;5030046;28;20246;-62
2021/07/02 06:17:45;;;;;;;22.70;17.73;;;19.40;99.90;;;;;;5029314;28;20696;-63
2021/07/02 06:20:15;;;;;;;24.47;19.43;;;19.50;99.90;;;;;;5029217;28;20234;-62
2021/07/02 06:22:45;;;;;;;21.67;18.03;;;19.60;99.90;;;;;;5044330;28;20772;-62
2021/07/02 06:25:14;;;;;;;20.63;17.83;;;19.90;99.90;;;;;;5030079;28;20236;-62
2021/07/02 06:27:42;;;;;;;22.27;17.23;;;20.00;99.90;;;;;;5029566;28;20768;-63
2021/07/02 06:30:16;;;;;;;18.87;16.60;;;20.00;99.90;;;;;;5028720;28;20246;-63
2021/07/02 06:32:45;;;;;;;19.27;15.83;;;20.10;99.90;;;;;;5027933;28;20634;-63
2021/07/02 06:35:13;;;;;;;20.03;17.30;;;20.20;99.90;;;;;;5027368;28;20292;-64
2021/07/02 06:37:47;;;;;;;21.30;16.83;;;20.20;99.90;;;;;;5031609;28;20235;-63
2021/07/02 06:40:18;;;;;;;20.37;16.87;;;20.10;99.90;;;;;;5028444;28;20247;-63
2021/07/02 06:42:46;;;;;;;21.27;16.93;;;19.80;99.90;;;;;;5028837;28;20772;-62
2021/07/02 06:45:18;;;;;;;22.53;17.27;;;19.50;99.90;;;;;;5030063;28;20231;-62
2021/07/02 06:47:56;;;;;;;18.60;16.47;;;19.30;99.90;;;;;;5023341;28;20710;-62
2021/07/02 06:50:25;;;;;;;19.50;15.97;;;19.40;99.90;;;;;;5028465;28;20238;-62
2021/07/02 06:52:53;;;;;;;21.53;16.63;;;19.60;99.90;;;;;;5031602;28;20236;-62
2021/07/02 06:55:23;;;;;;;19.60;16.37;;;19.90;99.90;;;;;;5024369;28;20250;-64
2021/07/02 06:57:51;;;;;;;23.93;16.20;;;20.00;99.90;;;;;;5030105;28;20243;-64
2021/07/02 07:00:20;;;;;;;18.30;16.03;;;20.10;99.90;;;;;;5026459;28;20243;-63
2021/07/02 07:02:48;;;;;;;19.77;15.70;;;20.00;99.90;;;;;;5026868;28;20251;-63
2021/07/02 07:05:20;;;;;;;21.13;16.30;;;20.00;99.90;;;;;;5026267;28;20235;-63
2021/07/02 07:07:49;;;;;;;20.23;16.33;;;19.90;99.90;;;;;;5026873;28;20703;-63
2021/07/02 07:10:17;;;;;;;20.00;16.33;;;19.80;99.90;;;;;;5027468;28;20777;-62
2021/07/02 07:12:47;;;;;;;17.50;15.07;;;20.00;99.90;;;;;;5028165;28;20297;-62
2021/07/02 07:15:15;;;;;;;18.40;15.03;;;20.60;99.90;;;;;;5028504;28;20318;-63
2021/07/02 07:17:43;;;;;;;16.73;14.13;;;21.10;99.90;;;;;;5028129;28;20664;-63
2021/07/02 07:20:13;;;;;;;18.70;15.33;;;21.40;99.90;;;;;;5028081;28;20756;-63
2021/07/02 07:22:41;;;;;;;16.77;14.67;;;21.30;99.90;;;;;;5022407;28;20297;-63
2021/07/02 07:25:11;;;;;;;16.73;13.60;;;21.30;99.90;;;;;;5040802;28;20244;-64
2021/07/02 07:27:39;;;;;;;17.37;14.10;;;21.40;99.90;;;;;;5028618;28;20298;-63
2021/07/02 07:30:10;;;;;;;17.73;14.73;;;21.50;99.90;;;;;;5028428;28;20232;-63
2021/07/02 07:32:40;;;;;;;16.77;14.83;;;21.60;99.90;;;;;;5027798;28;20244;-63
2021/07/02 07:35:22;;;;;;;21.80;16.80;;;21.40;99.90;;;;;;5028269;28;20294;-63
2021/07/02 07:37:54;;;;;;;21.13;17.20;;;20.90;99.90;;;;;;5028141;28;20236;-63
2021/07/02 07:40:24;;;;;;;21.53;18.23;;;20.50;99.90;;;;;;5026793;28;20231;-63
2021/07/02 07:42:52;;;;;;;24.50;18.50;;;20.30;99.90;;;;;;5025513;28;20248;-63
2021/07/02 07:45:23;;;;;;;24.57;18.83;;;20.20;99.90;;;;;;5025343;28;20353;-62
2021/07/02 07:47:51;;;;;;;23.20;18.20;;;20.20;99.90;;;;;;5025263;28;20248;-64
2021/07/02 07:50:22;;;;;;;22.90;17.40;;;20.90;99.90;;;;;;5025306;28;20754;-63
2021/07/02 07:52:58;;;;;;;23.30;16.83;;;21.60;99.90;;;;;;5025292;28;20336;-62
2021/07/02 07:55:27;;;;;;;22.47;16.07;;;22.20;99.90;;;;;;5024534;28;20243;-64
2021/07/02 07:57:56;;;;;;;16.63;14.70;;;22.80;99.90;;;;;;5023559;28;20240;-63
2021/07/02 08:00:26;;;;;;;17.07;14.27;;;23.10;99.90;;;;;;5030602;28;20798;-63
2021/07/02 08:02:54;;;;;;;17.17;15.37;;;23.00;99.90;;;;;;5024793;28;20256;-64
2021/07/02 08:05:23;;;;;;;16.40;14.73;;;22.90;99.90;;;;;;5025467;28;20697;-63
2021/07/02 08:07:51;;;;;;;18.33;14.70;;;22.80;99.90;;;;;;5030952;28;20673;-63
2021/07/02 08:10:22;;;;;;;18.57;14.67;;;22.60;99.90;;;;;;5024717;28;20245;-64
2021/07/02 08:12:51;;;;;;;15.80;14.10;;;22.80;99.90;;;;;;5025233;28;20507;-63
2021/07/02 08:15:20;;;;;;;18.50;15.73;;;23.40;99.90;;;;;;5025268;28;20301;-63
2021/07/02 08:17:50;;;;;;;17.67;15.83;;;23.90;99.90;;;;;;5025123;28;20255;-63
2021/07/02 08:20:18;;;;;;;18.00;15.87;;;24.10;99.90;;;;;;5025070;28;20236;-64
2021/07/02 08:22:47;;;;;;;19.37;17.37;;;23.80;99.90;;;;;;5024646;28;20798;-63
2021/07/02 08:25:15;;;;;;;18.93;16.87;;;23.30;99.90;;;;;;5025461;28;20249;-62
2021/07/02 08:30:30;;;;;;;17.70;15.63;;;22.30;99.90;;;;;;5024600;28;20323;-63
2021/07/02 08:32:59;;;;;;;19.90;16.33;;;22.50;99.90;;;;;;5024991;28;20240;-63
2021/07/02 08:35:27;;;;;;;18.67;16.07;;;23.30;99.90;;;;;;5024648;28;20228;-63
2021/07/02 08:37:57;;;;;;;17.73;15.00;;;23.60;99.90;;;;;;5024658;28;20259;-63
2021/07/02 08:40:25;;;;;;;15.77;14.27;;;23.60;99.90;;;;;;5023941;28;20331;-63
2021/07/02 08:42:54;;;;;;;17.93;14.37;;;23.60;99.90;;;;;;5024950;28;20245;-63
2021/07/02 08:45:22;;;;;;;17.03;14.33;;;23.40;99.90;;;;;;5025031;28;20320;-63
2021/07/02 08:47:52;;;;;;;14.93;13.37;;;22.90;99.90;;;;;;5024493;28;20551;-62
2021/07/02 08:50:22;;;;;;;15.17;12.63;;;22.20;99.90;;;;;;5024722;28;20336;-63
2021/07/02 08:52:51;;;;;;;16.30;13.50;;;22.00;99.90;;;;;;5024800;28;20248;-63
2021/07/02 08:55:19;;;;;;;15.23;12.67;;;21.90;99.90;;;;;;5028926;28;20235;-63
2021/07/02 08:57:47;;;;;;;14.43;12.97;;;22.30;99.90;;;;;;5043854;28;20258;-63
2021/07/02 09:00:16;;;;;;;13.63;12.30;;;23.30;99.90;;;;;;5040444;28;20259;-63
2021/07/02 09:02:44;;;;;;;14.27;12.77;;;24.10;99.90;;;;;;5039408;28;20244;-63
2021/07/02 09:05:35;;;;;;;14.70;13.20;;;24.10;99.90;;;;;;5024165;28;20894;-63
2021/07/02 09:08:14;;;;;;;16.40;12.30;;;24.00;99.90;;;;;;5024651;28;20249;-62
2021/07/02 09:10:45;;;;;;;13.57;12.17;;;24.60;99.90;;;;;;5023906;28;20243;-64
2021/07/02 09:13:14;;;;;;;14.87;12.10;;;24.90;99.90;;;;;;5024601;28;20248;-64
2021/07/02 09:15:44;;;;;;;13.07;11.67;;;24.90;99.90;;;;;;5024007;28;20249;-64
2021/07/02 09:18:14;;;;;;;13.07;11.40;;;25.20;99.90;;;;;;5024304;28;20320;-62
2021/07/02 09:20:46;;;;;;;12.50;10.87;;;25.60;99.90;;;;;;5023937;28;20261;-63
2021/07/02 09:23:16;;;;;;;12.23;10.10;;;25.90;99.90;;;;;;5027819;28;20246;-63
2021/07/02 09:25:51;;;;;;;11.93;9.77;;;26.30;99.90;;;;;;5028561;28;20237;-63
2021/07/02 09:28:27;;;;;;;11.00;9.83;;;26.70;99.90;;;;;;5028314;28;20241;-63
2021/07/02 09:30:55;;;;;;;13.03;10.23;;;26.70;99.90;;;;;;5043194;28;20521;-63
2021/07/02 09:33:25;;;;;;;14.80;9.77;;;26.60;99.90;;;;;;5027953;28;20483;-64
2021/07/02 09:35:58;;;;;;;13.63;9.87;;;26.60;99.90;;;;;;5028063;28;20281;-64
2021/07/02 09:38:35;;;;;;;11.60;10.10;;;26.80;99.90;;;;;;5019706;28;20235;-64
2021/07/02 09:41:04;;;;;;;11.27;10.00;;;27.00;99.90;;;;;;5027795;28;20255;-64
2021/07/02 09:43:33;;;;;;;11.13;9.67;;;26.70;99.90;;;;;;5028215;28;20297;-63
2021/07/02 09:46:03;;;;;;;14.23;10.03;;;26.40;99.90;;;;;;5027588;28;20237;-63
2021/07/02 09:48:34;;;;;;;13.17;10.07;;;26.00;99.90;;;;;;5027766;28;20246;-63
2021/07/02 09:51:05;;;;;;;11.17;9.23;;;25.60;99.90;;;;;;5027395;28;20779;-63
2021/07/02 09:53:35;;;;;;;12.70;9.60;;;25.40;99.90;;;;;;5027865;28;20793;-63
2021/07/02 09:56:05;;;;;;;12.43;9.87;;;25.10;99.90;;;;;;5027736;28;20535;-64
2021/07/02 09:58:36;;;;;;;11.87;9.63;;;25.10;99.90;;;;;;5027105;28;20289;-63
2021/07/02 10:01:06;;;;;;;10.53;8.87;;;25.30;99.90;;;;;;5027337;28;20304;-63
2021/07/02 10:03:36;;;;;;;12.17;9.13;;;25.50;99.90;;;;;;5027699;28;20332;-63
2021/07/02 10:06:10;;;;;;;11.13;8.40;;;25.70;99.90;;;;;;5027600;28;20244;-63
2021/07/02 10:08:40;;;;;;;8.30;7.50;;;26.50;99.90;;;;;;5027537;28;20305;-64
2021/07/02 10:11:11;;;;;;;10.77;8.07;;;27.20;99.90;;;;;;5037785;28;20243;-63
2021/07/02 10:13:40;;;;;;;10.73;8.10;;;27.00;99.90;;;;;;5047631;28;20308;-64
2021/07/02 10:16:10;;;;;;;9.80;7.80;;;26.50;99.90;;;;;;5035944;28;20243;-63
2021/07/02 10:18:45;;;;;;;10.13;8.23;;;26.00;99.90;;;;;;5027102;28;20242;-64
2021/07/02 10:21:16;;;;;;;12.50;8.67;;;25.80;99.90;;;;;;5027103;28;20369;-64
2021/07/02 10:23:47;;;;;;;8.33;7.40;;;25.50;99.90;;;;;;5027062;28;20249;-62
2021/07/02 10:26:16;;;;;;;9.23;7.60;;;25.30;99.90;;;;;;5027435;28;20270;-63
2021/07/02 10:28:45;;;;;;;8.67;7.43;;;25.80;99.90;;;;;;5027391;28;20752;-63
2021/07/02 10:31:16;;;;;;;9.07;7.07;;;26.20;99.90;;;;;;5026903;28;20239;-63
2021/07/02 10:33:46;;;;;;;9.60;7.93;;;25.90;99.90;;;;;;5027448;28;20239;-63
2021/07/02 10:36:17;;;;;;;9.30;7.37;;;25.50;99.90;;;;;;5026839;28;20335;-63
2021/07/02 10:38:48;;;;;;;9.47;7.60;;;25.50;99.90;;;;;;5026906;28;20334;-63
2021/07/02 10:41:18;;;;;;;9.03;7.03;;;25.30;99.90;;;;;;5026404;28;20314;-63
2021/07/02 10:44:04;;;;;;;8.20;7.30;;;25.50;99.90;;;;;;5026863;28;20780;-64
2021/07/02 10:46:35;;;;;;;9.87;7.37;;;25.50;99.90;;;;;;5026060;28;20321;-63
2021/07/02 10:49:06;;;;;;;7.97;6.83;;;25.80;99.90;;;;;;5026671;28;20246;-64
2021/07/02 10:51:44;;;;;;;10.17;7.40;;;26.00;99.90;;;;;;5026156;28;20342;-63
2021/07/02 10:54:36;;;;;;;9.47;6.47;;;26.00;99.90;;;;;;5027460;28;20587;-63
2021/07/02 10:57:23;;;;;;;9.33;6.33;;;25.90;99.90;;;;;;5044019;28;20248;-63
2021/07/02 11:00:10;;;;;;;7.67;6.13;;;25.80;99.90;;;;;;5046166;28;20256;-63
2021/07/02 11:02:41;;;;;;;10.47;6.30;;;26.40;99.90;;;;;;5020088;28;20296;-63
2021/07/02 11:05:34;;;;;;;8.90;6.47;;;26.70;99.90;;;;;;5026707;28;20240;-64
2021/07/02 11:08:04;;;;;;;8.97;6.37;;;27.10;99.90;;;;;;5020961;28;20235;-64
2021/07/02 11:10:59;;;;;;;9.67;6.63;;;27.40;99.90;;;;;;5026240;28;20240;-63
2021/07/02 11:13:28;;;;;;;8.83;6.27;;;27.70;99.90;;;;;;5005351;28;20259;-64
2021/07/02 11:16:08;;;;;;;7.50;5.87;;;27.70;99.90;;;;;;5026692;28;20244;-64
2021/07/02 11:18:41;;;;;;;8.17;6.50;;;28.10;99.90;;;;;;5019606;28;20651;-64
2021/07/02 11:21:16;;;;;;;9.13;5.93;;;28.20;99.90;;;;;;5025601;28;20240;-64
2021/07/02 11:23:47;;;;;;;8.90;5.83;;;28.20;99.90;;;;;;5026198;28;20251;-64
2021/07/02 11:26:49;;;;;;;6.20;5.60;;;28.20;99.90;;;;;;5025601;28;20259;-63
2021/07/02 11:29:36;;;;;;;8.23;5.87;;;28.80;99.90;;;;;;5025400;28;20242;-63
2021/07/02 11:32:05;;;;;;;6.63;5.37;;;28.60;99.90;;;;;;5025765;28;20262;-63
2021/07/02 11:34:34;;;;;;;9.07;6.30;;;28.40;99.90;;;;;;5025543;28;20600;-63
2021/07/02 11:37:14;;;;;;;8.67;6.13;;;28.20;99.90;;;;;;5025192;28;20231;-64
2021/07/02 11:39:48;;;;;;;8.30;5.83;;;27.70;99.90;;;;;;5023470;28;20583;-64
2021/07/02 11:42:17;;;;;;;6.73;5.57;;;27.80;99.90;;;;;;5025216;28;20266;-63
2021/07/02 11:44:47;;;;;;;7.23;5.63;;;28.10;99.90;;;;;;5024575;28;20248;-64
2021/07/02 11:47:15;;;;;;;8.20;5.57;;;28.40;99.90;;;;;;5025238;28;20244;-63
2021/07/02 11:49:51;;;;;;;9.10;5.80;;;28.60;99.90;;;;;;5012417;28;20246;-65
2021/07/02 11:52:21;;;;;;;7.57;5.60;;;28.90;99.90;;;;;;5015119;28;20690;-64
2021/07/02 11:54:54;;;;;;;6.20;5.67;;;28.70;99.90;;;;;;5014264;28;20716;-65
2021/07/02 11:57:24;;;;;;;6.73;5.27;;;28.40;99.90;;;;;;5016243;28;20620;-65
2021/07/02 12:00:00;;;;;;;8.73;5.70;;;28.40;99.90;;;;;;5022160;28;20331;-64
2021/07/02 12:02:29;;;;;;;6.60;5.87;;;27.60;99.90;;;;;;5017532;28;20239;-63
2021/07/02 12:05:10;;;;;;;7.77;6.53;;;26.90;99.90;;;;;;5015759;28;20238;-64
2021/07/02 12:07:47;;;;;;;7.70;5.50;;;26.70;99.90;;;;;;5016765;28;20260;-63
2021/07/02 12:10:17;;;;;;;7.00;5.70;;;26.70;99.90;;;;;;5018939;28;20320;-64
2021/07/02 12:12:45;;;;;;;8.10;5.30;;;26.80;99.90;;;;;;5017488;28;20240;-63
2021/07/02 12:15:23;;;;;;;5.57;5.03;;;26.70;99.90;;;;;;5016650;28;20290;-65
2021/07/02 12:18:01;;;;;;;7.33;5.00;;;26.20;99.90;;;;;;5019617;28;20243;-64
2021/07/02 12:20:29;;;;;;;6.33;5.60;;;25.90;99.90;;;;;;5021800;28;20244;-63
2021/07/02 12:23:07;;;;;;;6.10;5.40;;;25.70;99.90;;;;;;5016065;28;20730;-64
2021/07/02 12:26:17;;;;;;;7.00;5.47;;;25.70;99.90;;;;;;5011456;28;20240;-63
2021/07/02 12:29:06;;;;;;;7.50;5.77;;;25.80;99.90;;;;;;5016324;28;20239;-63
2021/07/02 12:31:44;;;;;;;6.70;5.93;;;25.80;99.90;;;;;;5015928;28;20238;-64
2021/07/02 12:34:15;;;;;;;8.47;6.17;;;26.00;99.90;;;;;;5016431;28;20239;-65
2021/07/02 12:36:58;;;;;;;6.77;5.40;;;26.00;99.90;;;;;;5021974;28;20295;-65
2021/07/02 12:39:30;;;;;;;6.77;5.60;;;26.10;99.90;;;;;;5014944;28;20247;-64
2021/07/02 12:42:02;;;;;;;6.83;5.80;;;26.20;99.90;;;;;;5018177;28;20235;-63
2021/07/02 12:44:32;;;;;;;6.00;5.33;;;26.30;99.90;;;;;;5013706;28;20230;-64
2021/07/02 12:47:04;;;;;;;7.97;5.70;;;26.30;99.90;;;;;;5015846;28;20361;-64
2021/07/02 12:49:35;;;;;;;8.73;6.00;;;26.10;99.90;;;;;;5010933;28;20338;-64
2021/07/02 12:54:55;;;;;;;7.17;6.10;;;25.60;99.90;;;;;;5012921;28;20305;-65